Time;durP1;ratioP1;P1;durP2;ratioP2;P2;SDS_P1;SDS_P2;PMS_P1;PMS_P2;Temp;Humidity;BMP_temperature;BMP_pressure;BME280_temperature;BME280_humidity;BME280_pressure;Samples;Min_cycle;Max_cycle;Signal;HPM_P1;HPM_P2
2021/11/30 00:01:44;;;;;;;6.93;2.25;;;5.60;99.90;;;;;;5062102;28;20535;-44
2021/11/30 00:04:11;;;;;;;5.55;2.38;;;5.60;99.90;;;;;;5066692;28;20704;-43
2021/11/30 00:06:36;;;;;;;5.68;2.80;;;5.60;99.90;;;;;;5065320;28;20396;-43
2021/11/30 00:09:22;;;;;;;9.52;3.10;;;5.60;99.90;;;;;;5066814;28;20031;-43
2021/11/30 00:11:49;;;;;;;4.13;2.50;;;5.60;99.90;;;;;;5067067;28;20020;-44
2021/11/30 00:14:14;;;;;;;5.63;2.97;;;5.70;99.90;;;;;;5066819;28;20069;-42
2021/11/30 00:16:40;;;;;;;5.72;2.40;;;5.70;99.90;;;;;;5066004;28;20016;-44
2021/11/30 00:19:06;;;;;;;11.07;4.00;;;5.70;99.90;;;;;;5066768;28;20058;-44
2021/11/30 00:21:31;;;;;;;8.27;3.25;;;5.70;99.90;;;;;;5066513;28;20027;-44
2021/11/30 00:23:57;;;;;;;8.27;3.58;;;5.70;99.90;;;;;;5066625;28;20028;-43
2021/11/30 00:26:22;;;;;;;8.07;3.92;;;5.70;99.90;;;;;;5066574;28;20540;-43
2021/11/30 00:28:48;;;;;;;7.97;4.13;;;5.60;99.90;;;;;;5066587;28;20024;-42
2021/11/30 00:31:13;;;;;;;8.98;4.30;;;5.60;99.90;;;;;;5067145;28;20028;-43
2021/11/30 00:33:39;;;;;;;10.75;5.00;;;5.60;99.90;;;;;;5066480;28;20081;-44
2021/11/30 00:36:05;;;;;;;8.32;4.80;;;5.60;99.90;;;;;;5065996;28;20112;-44
2021/11/30 00:38:31;;;;;;;10.52;5.35;;;5.60;99.90;;;;;;5066206;28;20025;-44
2021/11/30 00:40:56;;;;;;;10.02;5.45;;;5.60;99.90;;;;;;5066450;28;20434;-43
2021/11/30 00:43:33;;;;;;;8.85;4.90;;;5.60;99.90;;;;;;5065728;28;20017;-42
2021/11/30 00:46:12;;;;;;;10.38;5.57;;;5.60;99.90;;;;;;5066603;28;20036;-44
2021/11/30 00:48:38;;;;;;;9.70;5.97;;;5.60;99.90;;;;;;5066238;28;20731;-44
2021/11/30 00:51:17;;;;;;;9.38;5.65;;;5.60;99.90;;;;;;5065224;28;20024;-43
2021/11/30 00:53:45;;;;;;;14.05;6.47;;;5.60;99.90;;;;;;5065918;28;20025;-43
2021/11/30 00:56:11;;;;;;;13.35;6.68;;;5.60;99.90;;;;;;5066386;28;20033;-43
2021/11/30 00:58:38;;;;;;;13.73;5.90;;;5.60;99.90;;;;;;5066424;28;20024;-44
2021/11/30 01:01:04;;;;;;;9.60;5.72;;;5.60;99.90;;;;;;5066197;28;20031;-43
2021/11/30 01:03:31;;;;;;;10.00;5.40;;;5.60;99.90;;;;;;5063460;28;20020;-42
2021/11/30 01:05:56;;;;;;;11.05;5.57;;;5.60;99.90;;;;;;5066064;28;20131;-43
2021/11/30 01:08:22;;;;;;;13.15;5.70;;;5.60;99.90;;;;;;5066139;28;20258;-43
2021/11/30 01:10:49;;;;;;;10.05;4.70;;;5.60;99.90;;;;;;5066513;28;20576;-43
2021/11/30 01:13:15;;;;;;;9.05;5.07;;;5.60;99.90;;;;;;5067072;28;20399;-43
2021/11/30 01:15:42;;;;;;;11.68;5.20;;;5.60;99.90;;;;;;5066447;28;20029;-43
2021/11/30 01:18:07;;;;;;;8.85;4.32;;;5.60;99.90;;;;;;5065557;28;20032;-42
2021/11/30 01:20:34;;;;;;;9.00;4.70;;;5.60;99.90;;;;;;5066065;28;20169;-43
2021/11/30 01:22:59;;;;;;;8.60;4.22;;;5.60;99.90;;;;;;5067423;28;20078;-44
2021/11/30 01:25:25;;;;;;;6.50;3.78;;;5.60;99.90;;;;;;5069473;28;20484;-42
2021/11/30 01:27:51;;;;;;;7.85;3.97;;;5.60;99.90;;;;;;5069925;28;20119;-47
2021/11/30 01:30:18;;;;;;;7.53;3.50;;;5.60;99.90;;;;;;5069163;28;20024;-44
2021/11/30 01:32:46;;;;;;;6.55;3.85;;;5.60;99.90;;;;;;5069972;28;20059;-44
2021/11/30 01:35:14;;;;;;;9.48;3.90;;;5.60;99.90;;;;;;5068624;28;20115;-43
2021/11/30 01:37:40;;;;;;;7.70;4.18;;;5.50;99.90;;;;;;5069412;28;20385;-43
2021/11/30 01:40:08;;;;;;;6.35;4.20;;;5.50;99.90;;;;;;5068525;28;20047;-44
2021/11/30 01:42:34;;;;;;;7.03;4.03;;;5.50;99.90;;;;;;5069378;28;20151;-42
2021/11/30 01:45:05;;;;;;;6.45;3.85;;;5.40;99.90;;;;;;5068684;28;20047;-43
2021/11/30 01:50:03;;;;;;;9.05;4.43;;;5.30;99.90;;;;;;5068865;28;20527;-43
2021/11/30 01:52:30;;;;;;;9.55;4.75;;;5.30;99.90;;;;;;5069519;28;20028;-44
2021/11/30 01:54:55;;;;;;;12.27;5.22;;;5.20;99.90;;;;;;5068442;28;20471;-43
2021/11/30 01:57:23;;;;;;;8.63;4.90;;;5.20;99.90;;;;;;5069546;28;20031;-43
2021/11/30 01:59:50;;;;;;;12.30;6.15;;;5.10;99.90;;;;;;5068319;28;20039;-41
2021/11/30 02:02:17;;;;;;;11.75;5.28;;;5.10;99.90;;;;;;5069447;28;20036;-43
2021/11/30 02:04:43;;;;;;;12.10;6.18;;;5.10;99.90;;;;;;5068505;28;20044;-43
2021/11/30 02:07:09;;;;;;;15.57;6.05;;;5.00;99.90;;;;;;5068355;28;20027;-43
2021/11/30 02:09:36;;;;;;;16.48;6.88;;;5.00;99.90;;;;;;5069145;28;20032;-44
2021/11/30 02:12:04;;;;;;;21.55;7.35;;;5.00;99.90;;;;;;5068875;28;20043;-44
2021/11/30 02:14:30;;;;;;;17.95;7.80;;;4.90;99.90;;;;;;5068687;28;20100;-43
2021/11/30 02:16:56;;;;;;;20.23;7.55;;;4.90;99.90;;;;;;5068502;28;20040;-44
2021/11/30 02:19:22;;;;;;;16.88;7.38;;;4.90;99.90;;;;;;5069055;28;20052;-43
2021/11/30 02:21:48;;;;;;;21.25;8.65;;;4.80;99.90;;;;;;5067637;28;20032;-43
2021/11/30 02:24:13;;;;;;;19.30;8.00;;;4.80;99.90;;;;;;5068871;28;20040;-42
2021/11/30 02:26:41;;;;;;;21.08;8.43;;;4.80;99.90;;;;;;5068569;28;20021;-43
2021/11/30 02:29:11;;;;;;;18.23;8.13;;;4.80;99.90;;;;;;5068732;28;20024;-43
2021/11/30 02:31:41;;;;;;;21.23;8.52;;;4.80;99.90;;;;;;5068276;28;20020;-43
2021/11/30 02:34:07;;;;;;;18.25;8.38;;;4.80;99.90;;;;;;5067751;28;20020;-43
2021/11/30 02:37:25;;;;;;;20.48;8.60;;;4.80;99.90;;;;;;5068951;28;20507;-43
2021/11/30 02:39:25;;;;;;;21.98;8.35;;;4.80;99.90;;;;;;5045132;28;20033;-43
2021/11/30 02:41:52;;;;;;;15.70;8.45;;;4.70;99.90;;;;;;5062924;28;20044;-44
2021/11/30 02:44:21;;;;;;;16.70;8.13;;;4.70;99.90;;;;;;5068935;28;20032;-42
2021/11/30 02:46:54;;;;;;;17.67;8.55;;;4.70;99.90;;;;;;5067961;28;20133;-43
2021/11/30 02:49:22;;;;;;;14.15;7.90;;;4.70;99.90;;;;;;5068641;28;20028;-43
2021/11/30 02:51:51;;;;;;;16.33;8.18;;;4.70;99.90;;;;;;5068786;28;20024;-44
2021/11/30 02:54:19;;;;;;;13.48;8.02;;;4.70;99.90;;;;;;5068508;28;20028;-43
2021/11/30 02:56:48;;;;;;;15.30;8.55;;;4.70;99.90;;;;;;5067132;28;20073;-43
2021/11/30 02:59:14;;;;;;;16.75;8.80;;;4.70;99.90;;;;;;5068350;28;20025;-43
2021/11/30 03:02:01;;;;;;;15.98;9.10;;;4.70;99.90;;;;;;5066713;28;20017;-43
2021/11/30 03:04:27;;;;;;;15.25;8.15;;;4.70;99.90;;;;;;5066597;28;20070;-43
2021/11/30 03:06:54;;;;;;;20.15;9.70;;;4.70;99.90;;;;;;5067064;28;20025;-43
2021/11/30 03:09:20;;;;;;;18.08;9.88;;;4.80;99.90;;;;;;5068218;28;20028;-43
2021/11/30 03:11:46;;;;;;;15.90;9.55;;;4.80;99.90;;;;;;5066487;28;20012;-43
2021/11/30 03:14:11;;;;;;;16.88;10.15;;;4.70;99.90;;;;;;5067421;28;20044;-43
2021/11/30 03:16:38;;;;;;;16.42;10.93;;;4.80;99.90;;;;;;5066520;28;20059;-43
2021/11/30 03:19:04;;;;;;;18.33;10.13;;;4.80;99.90;;;;;;5067156;28;20041;-43
2021/11/30 03:21:30;;;;;;;14.02;10.55;;;4.80;99.90;;;;;;5066963;28;20090;-43
2021/11/30 03:23:55;;;;;;;14.20;9.90;;;4.90;99.90;;;;;;5066249;28;20063;-45
2021/11/30 03:26:21;;;;;;;15.45;10.57;;;4.90;99.90;;;;;;5067760;28;20111;-44
2021/11/30 03:28:47;;;;;;;15.70;10.43;;;4.90;99.90;;;;;;5065999;28;20459;-43
2021/11/30 03:31:33;;;;;;;14.27;10.15;;;4.90;99.90;;;;;;5067128;28;20746;-43
2021/11/30 03:34:01;;;;;;;17.75;11.27;;;4.90;99.90;;;;;;5067454;28;20028;-44
2021/11/30 03:36:29;;;;;;;14.90;11.02;;;5.00;99.90;;;;;;5067069;28;20035;-43
2021/11/30 03:38:55;;;;;;;16.27;11.90;;;5.00;99.90;;;;;;5066422;28;20017;-42
2021/11/30 03:41:21;;;;;;;13.48;10.32;;;5.00;99.90;;;;;;5067514;28;20385;-42
2021/11/30 03:43:46;;;;;;;15.13;10.90;;;5.10;99.90;;;;;;5065996;28;20016;-43
2021/11/30 03:46:12;;;;;;;12.80;10.43;;;5.10;99.90;;;;;;5066952;28;20055;-43
2021/11/30 03:48:38;;;;;;;11.40;10.20;;;5.20;99.90;;;;;;5066603;28;20507;-42
2021/11/30 03:51:03;;;;;;;15.52;11.48;;;5.20;99.90;;;;;;5067335;28;20036;-43
2021/11/30 03:53:29;;;;;;;13.90;10.57;;;5.20;99.90;;;;;;5066294;28;20058;-44
2021/11/30 03:55:55;;;;;;;12.70;10.73;;;5.20;99.90;;;;;;5066764;28;20064;-44
2021/11/30 03:58:20;;;;;;;12.02;10.57;;;5.30;99.90;;;;;;5066875;28;20074;-43
2021/11/30 04:00:46;;;;;;;11.43;9.27;;;5.30;99.90;;;;;;5066429;28;20194;-43
2021/11/30 04:03:11;;;;;;;11.27;10.02;;;5.40;99.90;;;;;;5066680;28;20024;-42
2021/11/30 04:05:37;;;;;;;12.48;10.35;;;5.40;99.90;;;;;;5065909;28;20740;-42
2021/11/30 04:08:03;;;;;;;10.77;9.18;;;5.40;99.90;;;;;;5067163;28;20016;-44
2021/11/30 04:10:29;;;;;;;9.02;8.07;;;5.50;99.90;;;;;;5065969;28;20048;-43
2021/11/30 04:12:55;;;;;;;9.88;8.32;;;5.50;99.90;;;;;;5066389;28;20086;-43
2021/11/30 04:15:21;;;;;;;7.50;6.80;;;5.60;99.90;;;;;;5066108;28;20636;-43
2021/11/30 04:17:47;;;;;;;7.03;6.38;;;5.70;99.90;;;;;;5066013;28;20032;-43
2021/11/30 04:20:12;;;;;;;6.85;6.25;;;5.70;99.90;;;;;;5065678;28;20047;-44
2021/11/30 04:22:39;;;;;;;6.15;5.65;;;5.80;99.90;;;;;;5065988;28;20135;-44
2021/11/30 04:25:06;;;;;;;7.20;6.60;;;5.80;99.90;;;;;;5067064;28;20040;-44
2021/11/30 04:27:32;;;;;;;6.40;5.80;;;5.90;99.90;;;;;;5066169;28;20104;-43
2021/11/30 04:29:58;;;;;;;6.30;5.70;;;5.90;99.90;;;;;;5066297;28;20107;-43
2021/11/30 04:32:24;;;;;;;6.68;6.07;;;6.00;99.90;;;;;;5066582;28;20115;-42
2021/11/30 04:34:49;;;;;;;6.28;5.78;;;6.00;99.90;;;;;;5066115;28;20103;-43
2021/11/30 04:37:15;;;;;;;6.50;5.93;;;6.10;99.90;;;;;;5067050;28;20111;-43
2021/11/30 04:39:41;;;;;;;6.00;5.50;;;6.10;99.90;;;;;;5066288;28;20492;-43
2021/11/30 04:42:06;;;;;;;6.10;5.60;;;6.20;99.90;;;;;;5066036;28;20020;-43
2021/11/30 04:44:35;;;;;;;6.20;5.70;;;6.20;99.90;;;;;;5066006;28;20032;-43
2021/11/30 04:47:09;;;;;;;6.00;5.50;;;6.20;99.90;;;;;;5066821;28;20483;-43
2021/11/30 04:52:01;;;;;;;5.88;5.38;;;6.30;99.90;;;;;;5066019;28;20494;-43
2021/11/30 04:54:27;;;;;;;5.65;5.15;;;6.30;99.90;;;;;;5066146;28;20021;-43
2021/11/30 04:56:53;;;;;;;4.95;4.63;;;6.40;99.90;;;;;;5065646;28;20487;-43
2021/11/30 04:59:20;;;;;;;5.38;4.88;;;6.40;99.90;;;;;;5070658;28;20029;-43
2021/11/30 05:01:47;;;;;;;5.13;4.72;;;6.40;99.90;;;;;;5070506;28;20033;-44
2021/11/30 05:04:13;;;;;;;5.25;4.75;;;6.50;99.90;;;;;;5070316;28;20170;-43
2021/11/30 05:06:39;;;;;;;5.07;4.68;;;6.50;99.90;;;;;;5068966;28;20037;-43
2021/11/30 05:09:05;;;;;;;5.20;4.80;;;6.60;99.90;;;;;;5069810;28;20029;-43
2021/11/30 05:11:31;;;;;;;5.25;4.85;;;6.60;99.90;;;;;;5070071;28;20021;-43
2021/11/30 05:13:56;;;;;;;5.63;5.22;;;6.60;99.90;;;;;;5070272;28;20028;-43
2021/11/30 05:16:22;;;;;;;5.43;5.03;;;6.60;99.90;;;;;;5069713;28;20031;-43
2021/11/30 05:18:48;;;;;;;5.45;5.05;;;6.70;99.90;;;;;;5070384;28;20028;-43
2021/11/30 05:21:13;;;;;;;5.28;4.88;;;6.70;99.90;;;;;;5069695;28;20040;-43
2021/11/30 05:23:41;;;;;;;5.15;4.75;;;6.70;99.90;;;;;;5069307;28;20024;-43
2021/11/30 05:26:08;;;;;;;4.80;4.40;;;6.80;99.90;;;;;;5069718;28;20028;-43
2021/11/30 05:28:36;;;;;;;5.10;4.70;;;6.80;99.90;;;;;;5069236;28;20730;-43
2021/11/30 05:31:04;;;;;;;5.10;4.70;;;6.90;99.90;;;;;;5070359;28;20028;-44
2021/11/30 05:33:29;;;;;;;4.57;4.28;;;6.90;99.90;;;;;;5066229;28;20033;-43
2021/11/30 05:35:55;;;;;;;4.75;4.35;;;6.90;99.90;;;;;;5069539;28;20900;-43
2021/11/30 05:38:21;;;;;;;5.13;4.72;;;7.00;99.90;;;;;;5069193;28;20809;-42
2021/11/30 05:40:47;;;;;;;4.80;4.40;;;7.00;99.90;;;;;;5069628;28;20039;-44
2021/11/30 05:43:13;;;;;;;3.83;3.53;;;7.10;99.90;;;;;;5069185;28;20441;-43
2021/11/30 05:45:39;;;;;;;4.47;4.07;;;7.10;99.90;;;;;;5068971;28;20074;-43
2021/11/30 05:48:06;;;;;;;4.20;3.90;;;7.10;99.90;;;;;;5069299;28;20029;-44
2021/11/30 05:50:32;;;;;;;4.00;3.70;;;7.20;99.90;;;;;;5069197;28;20040;-43
2021/11/30 05:52:58;;;;;;;4.20;3.90;;;7.20;99.90;;;;;;5068294;28;20031;-42
2021/11/30 05:55:23;;;;;;;4.03;3.72;;;7.30;99.90;;;;;;5069112;28;20024;-43
2021/11/30 05:57:49;;;;;;;3.88;3.58;;;7.30;99.90;;;;;;5068686;28;20027;-43
2021/11/30 06:00:17;;;;;;;5.43;3.80;;;7.30;99.90;;;;;;5069364;28;20468;-44
2021/11/30 06:03:02;;;;;;;3.92;3.63;;;7.40;99.90;;;;;;5068959;28;20024;-43
2021/11/30 06:05:29;;;;;;;3.95;3.65;;;7.40;99.90;;;;;;5068877;28;20089;-43
2021/11/30 06:07:55;;;;;;;3.42;3.13;;;7.40;99.90;;;;;;5068797;28;20040;-43
2021/11/30 06:10:21;;;;;;;4.20;3.90;;;7.50;99.90;;;;;;5068827;28;20107;-44
2021/11/30 06:12:47;;;;;;;3.83;3.53;;;7.50;99.90;;;;;;5068606;28;20404;-42
2021/11/30 06:15:13;;;;;;;3.53;3.22;;;7.50;99.90;;;;;;5069705;28;20039;-43
2021/11/30 06:17:39;;;;;;;3.90;3.60;;;7.50;99.90;;;;;;5068562;28;20028;-43
2021/11/30 06:20:06;;;;;;;3.85;3.55;;;7.60;99.90;;;;;;5069046;28;20032;-43
2021/11/30 06:22:32;;;;;;;3.80;3.50;;;7.60;99.90;;;;;;5068849;28;20048;-45
2021/11/30 06:24:58;;;;;;;3.63;3.33;;;7.60;99.90;;;;;;5068609;28;20040;-43
2021/11/30 06:27:24;;;;;;;3.67;3.40;;;7.70;99.90;;;;;;5068760;28;20021;-43
2021/11/30 06:29:49;;;;;;;3.70;3.40;;;7.70;99.90;;;;;;5068525;28;20024;-43
2021/11/30 06:32:15;;;;;;;3.63;3.33;;;7.80;99.90;;;;;;5068925;28;20694;-42
2021/11/30 06:34:40;;;;;;;3.67;3.38;;;7.80;99.90;;;;;;5067279;28;20029;-43
2021/11/30 06:37:09;;;;;;;3.47;3.20;;;7.80;99.90;;;;;;5069131;28;20031;-44
2021/11/30 06:39:36;;;;;;;3.88;3.58;;;7.90;99.90;;;;;;5068396;28;20531;-43
2021/11/30 06:42:02;;;;;;;3.63;3.33;;;8.00;99.90;;;;;;5063350;28;20082;-43
2021/11/30 06:44:32;;;;;;;3.58;3.28;;;8.00;99.90;;;;;;5067264;28;20167;-44
2021/11/30 06:46:57;;;;;;;3.40;3.10;;;8.10;99.90;;;;;;5067395;28;20024;-43
2021/11/30 06:49:23;;;;;;;3.90;3.60;;;8.10;99.90;;;;;;5067181;28;20480;-45
2021/11/30 06:51:48;;;;;;;3.13;2.92;;;8.20;99.90;;;;;;5067583;28;20021;-44
2021/11/30 06:54:14;;;;;;;3.50;3.20;;;8.20;99.90;;;;;;5057474;28;20103;-43
2021/11/30 06:56:39;;;;;;;4.95;2.90;;;8.30;99.90;;;;;;5066610;28;20031;-43
2021/11/30 06:59:05;;;;;;;2.95;2.75;;;8.30;99.90;;;;;;5066575;28;20024;-45
2021/11/30 07:01:33;;;;;;;3.67;3.22;;;8.40;99.90;;;;;;5067159;28;20372;-43
2021/11/30 07:04:00;;;;;;;3.50;2.90;;;8.40;99.90;;;;;;5067368;28;20024;-42
2021/11/30 07:06:33;;;;;;;3.45;3.15;;;8.50;99.90;;;;;;5066001;28;20063;-44
2021/11/30 07:14:06;;;;;;;4.45;3.55;;;8.70;99.90;;;;;;5067484;28;20029;-44
2021/11/30 07:16:32;;;;;;;3.72;3.30;;;8.70;99.90;;;;;;5066048;28;20078;-44
2021/11/30 07:18:58;;;;;;;4.30;3.17;;;8.70;99.90;;;;;;5067952;28;20048;-44
2021/11/30 07:21:26;;;;;;;3.95;3.55;;;8.80;99.90;;;;;;5066687;28;20078;-44
2021/11/30 07:23:52;;;;;;;4.15;3.72;;;8.80;99.90;;;;;;5061280;28;20025;-44
2021/11/30 07:26:18;;;;;;;5.05;4.03;;;8.90;99.90;;;;;;5061119;28;20024;-43
2021/11/30 07:28:43;;;;;;;4.70;3.75;;;8.90;99.90;;;;;;5069531;28;20488;-44
2021/11/30 07:31:11;;;;;;;6.88;4.13;;;8.90;99.90;;;;;;5067178;28;20017;-42
2021/11/30 07:33:39;;;;;;;7.13;4.50;;;9.00;99.90;;;;;;5067699;28;20024;-43
2021/11/30 07:36:05;;;;;;;8.57;4.57;;;9.00;99.90;;;;;;5067368;28;20013;-45
2021/11/30 07:38:32;;;;;;;5.40;4.40;;;9.10;99.90;;;;;;5066793;28;20120;-43
2021/11/30 07:40:59;;;;;;;5.70;4.40;;;9.10;99.90;;;;;;5067583;28;20017;-43
2021/11/30 07:43:25;;;;;;;5.65;4.07;;;9.10;99.90;;;;;;5067319;28;20059;-43
2021/11/30 07:45:50;;;;;;;7.05;4.55;;;9.10;99.90;;;;;;5064458;28;20068;-43
2021/11/30 07:48:17;;;;;;;4.70;3.78;;;9.10;99.90;;;;;;5067478;28;20123;-43
2021/11/30 07:50:43;;;;;;;5.88;4.45;;;9.20;99.90;;;;;;5067017;28;20162;-44
2021/11/30 07:53:09;;;;;;;6.10;4.00;;;9.20;99.90;;;;;;5067152;28;20460;-44
2021/11/30 07:55:36;;;;;;;8.15;4.18;;;9.20;99.90;;;;;;5066989;28;20032;-43
2021/11/30 07:58:04;;;;;;;5.38;3.60;;;9.20;99.90;;;;;;5066937;28;20048;-44
2021/11/30 08:00:30;;;;;;;5.82;3.80;;;9.30;99.90;;;;;;5067403;28;20498;-43
2021/11/30 08:02:56;;;;;;;4.65;3.80;;;9.30;99.90;;;;;;5066667;28;20025;-44
2021/11/30 08:05:21;;;;;;;4.85;3.22;;;9.30;99.90;;;;;;5067344;28;20171;-42
2021/11/30 08:07:47;;;;;;;5.18;3.47;;;9.30;99.90;;;;;;5066240;28;20028;-44
2021/11/30 08:10:16;;;;;;;6.47;3.50;;;9.30;99.90;;;;;;5051886;28;20132;-44
2021/11/30 08:12:43;;;;;;;4.93;3.00;;;9.30;99.90;;;;;;5051161;28;20021;-43
2021/11/30 08:15:10;;;;;;;6.25;3.95;;;9.40;99.90;;;;;;5062508;28;20024;-43
2021/11/30 08:17:36;;;;;;;7.00;3.58;;;9.40;99.90;;;;;;5064518;28;20037;-44
2021/11/30 08:20:03;;;;;;;4.30;3.40;;;9.40;99.90;;;;;;5065404;28;20052;-43
2021/11/30 08:22:29;;;;;;;3.50;2.55;;;9.40;99.90;;;;;;5044709;28;20036;-43
2021/11/30 08:24:54;;;;;;;4.70;2.90;;;9.40;99.90;;;;;;5060867;28;20047;-43
2021/11/30 08:27:20;;;;;;;6.18;3.25;;;9.40;99.90;;;;;;5065090;28;20052;-43
2021/11/30 08:29:49;;;;;;;5.75;3.13;;;9.40;99.90;;;;;;5065526;28;20025;-43
2021/11/30 08:32:15;;;;;;;7.00;2.88;;;9.40;99.90;;;;;;5060122;28;20021;-44
2021/11/30 08:34:42;;;;;;;4.32;2.65;;;9.50;99.90;;;;;;5056349;28;20016;-44
2021/11/30 08:37:09;;;;;;;3.53;2.70;;;9.50;99.90;;;;;;5066214;28;20021;-44
2021/11/30 08:39:36;;;;;;;5.85;3.10;;;9.50;99.90;;;;;;5065122;28;20020;-43
2021/11/30 08:42:06;;;;;;;4.55;2.90;;;9.60;99.90;;;;;;5059841;28;20492;-44
2021/11/30 08:44:32;;;;;;;4.13;2.60;;;9.50;99.90;;;;;;5056613;28;20505;-43
2021/11/30 08:46:58;;;;;;;4.60;2.30;;;9.50;99.90;;;;;;5066055;28;20071;-43
2021/11/30 08:49:25;;;;;;;6.40;2.67;;;9.60;99.90;;;;;;5064708;28;20031;-43
2021/11/30 08:51:51;;;;;;;6.65;2.80;;;9.60;99.90;;;;;;5059555;28;20118;-44
2021/11/30 08:54:17;;;;;;;6.53;2.75;;;9.60;99.90;;;;;;5056962;28;20412;-43
2021/11/30 08:56:43;;;;;;;4.93;2.60;;;9.60;99.90;;;;;;5065375;28;20048;-43
2021/11/30 08:59:11;;;;;;;8.15;2.67;;;9.60;99.90;;;;;;5065301;28;20025;-43
2021/11/30 09:01:36;;;;;;;5.55;2.47;;;9.70;99.90;;;;;;5062161;28;20033;-43
2021/11/30 09:04:02;;;;;;;4.47;2.60;;;9.70;99.90;;;;;;5046101;28;20487;-43
2021/11/30 09:06:27;;;;;;;4.57;2.20;;;9.70;99.90;;;;;;5065319;28;20037;-43
2021/11/30 09:08:53;;;;;;;4.05;2.30;;;9.70;99.90;;;;;;5064400;28;20431;-43
2021/11/30 09:11:19;;;;;;;5.00;2.58;;;9.70;99.90;;;;;;5065920;28;20081;-43
2021/11/30 09:13:46;;;;;;;3.97;2.00;;;9.70;99.90;;;;;;5050047;28;20036;-44
2021/11/30 09:16:12;;;;;;;2.58;1.83;;;9.80;99.90;;;;;;5065916;28;20021;-43
2021/11/30 09:18:38;;;;;;;4.10;2.40;;;9.80;99.90;;;;;;5062837;28;20031;-43
2021/11/30 09:21:03;;;;;;;3.00;2.10;;;9.80;99.90;;;;;;5065191;28;20431;-46
2021/11/30 09:23:29;;;;;;;4.10;2.08;;;9.90;99.90;;;;;;5050058;28;20396;-44
2021/11/30 09:25:56;;;;;;;2.97;2.08;;;9.90;99.90;;;;;;5064491;28;20036;-44
2021/11/30 09:28:22;;;;;;;3.63;1.90;;;9.90;99.90;;;;;;5066085;28;20024;-44
2021/11/30 09:30:48;;;;;;;2.85;1.95;;;10.00;99.90;;;;;;5064187;28;21050;-44
2021/11/30 09:33:13;;;;;;;2.67;1.65;;;9.90;99.90;;;;;;5051213;28;20023;-44
2021/11/30 09:35:39;;;;;;;2.30;1.63;;;10.00;99.90;;;;;;5065188;28;20656;-44
2021/11/30 09:38:04;;;;;;;2.20;1.50;;;10.00;99.90;;;;;;5065293;28;20025;-45
2021/11/30 09:40:34;;;;;;;5.07;1.80;;;10.00;99.90;;;;;;5064670;28;20021;-43
2021/11/30 09:43:00;;;;;;;2.63;1.50;;;10.00;99.90;;;;;;5051076;28;20032;-44
2021/11/30 09:45:26;;;;;;;2.80;1.35;;;10.00;99.90;;;;;;5068258;28;20112;-43
2021/11/30 09:47:53;;;;;;;3.88;1.65;;;10.00;99.90;;;;;;5068646;28;20135;-44
2021/11/30 09:50:22;;;;;;;3.80;1.60;;;10.10;99.90;;;;;;5068405;28;20025;-44
2021/11/30 09:52:53;;;;;;;4.50;1.38;;;10.10;99.90;;;;;;5058431;28;20029;-44
2021/11/30 09:55:22;;;;;;;1.90;1.30;;;10.10;99.90;;;;;;5069136;28;20035;-43
2021/11/30 09:57:47;;;;;;;2.53;1.83;;;10.10;99.90;;;;;;5067988;28;20017;-43
2021/11/30 10:00:15;;;;;;;1.90;1.40;;;10.10;99.90;;;;;;5069256;28;20040;-44
2021/11/30 10:02:41;;;;;;;1.50;1.15;;;10.20;99.90;;;;;;5057060;28;20496;-43
2021/11/30 10:05:07;;;;;;;2.45;1.30;;;10.20;99.90;;;;;;5064455;28;20036;-43
2021/11/30 10:07:44;;;;;;;3.42;1.60;;;10.20;99.90;;;;;;5068291;28;20024;-44
2021/11/30 10:10:36;;;;;;;3.10;1.40;;;10.20;99.90;;;;;;5069090;28;20102;-43
2021/11/30 10:13:04;;;;;;;2.03;1.30;;;10.20;99.90;;;;;;5052079;28;20033;-43
2021/11/30 10:15:48;;;;;;;1.00;0.80;;;10.20;99.90;;;;;;5068462;28;20024;-44
2021/11/30 10:18:19;;;;;;;0.80;0.80;;;10.20;99.90;;;;;;5067502;28;20042;-44
2021/11/30 10:20:46;;;;;;;1.20;0.70;;;10.10;99.90;;;;;;5067074;28;20484;-44
2021/11/30 10:23:12;;;;;;;1.23;0.50;;;10.00;99.90;;;;;;5068939;28;20089;-45
2021/11/30 10:25:40;;;;;;;2.03;0.50;;;10.00;99.90;;;;;;5070202;28;20483;-44
2021/11/30 10:28:11;;;;;;;0.38;0.30;;;9.90;99.90;;;;;;5069969;28;20086;-43
2021/11/30 10:30:40;;;;;;;0.40;0.40;;;9.80;99.90;;;;;;5069737;28;20077;-44
2021/11/30 10:33:12;;;;;;;0.47;0.30;;;9.80;99.90;;;;;;5068485;28;20031;-44
2021/11/30 10:35:38;;;;;;;1.00;0.20;;;9.70;99.90;;;;;;5068747;28;20101;-43
2021/11/30 10:38:05;;;;;;;0.70;0.35;;;9.70;99.90;;;;;;5068890;28;20535;-43
2021/11/30 10:40:33;;;;;;;0.47;0.38;;;9.60;99.90;;;;;;5048752;28;20074;-44
2021/11/30 10:43:02;;;;;;;0.85;0.28;;;9.60;99.90;;;;;;5044590;28;20029;-44
2021/11/30 10:45:37;;;;;;;0.47;0.40;;;9.60;99.90;;;;;;5061275;28;20040;-43
2021/11/30 10:48:14;;;;;;;0.57;0.30;;;9.60;99.90;;;;;;5066448;28;20024;-42
2021/11/30 10:50:56;;;;;;;0.40;0.35;;;9.60;99.90;;;;;;5066650;28;20028;-44
2021/11/30 10:53:28;;;;;;;1.02;0.50;;;9.60;99.90;;;;;;5052697;28;20044;-44
2021/11/30 10:56:01;;;;;;;1.30;0.87;;;9.60;99.90;;;;;;5065225;28;20116;-43
2021/11/30 10:58:30;;;;;;;2.03;0.50;;;9.50;99.90;;;;;;5066804;28;20773;-44
2021/11/30 11:00:59;;;;;;;1.60;0.50;;;9.50;99.90;;;;;;5066112;28;20161;-43
2021/11/30 11:03:26;;;;;;;1.42;0.60;;;9.40;99.90;;;;;;5051323;28;20030;-43
2021/11/30 11:08:45;;;;;;;0.70;0.40;;;9.40;99.90;;;;;;5059366;28;20040;-45
2021/11/30 11:11:14;;;;;;;1.85;0.50;;;9.40;99.90;;;;;;5065722;28;20037;-43
2021/11/30 11:13:43;;;;;;;1.23;0.40;;;9.40;99.90;;;;;;5050428;28;20016;-43
2021/11/30 11:16:36;;;;;;;1.98;0.52;;;9.50;99.90;;;;;;5065755;28;20084;-42
2021/11/30 11:19:08;;;;;;;3.05;0.73;;;9.40;99.90;;;;;;5066072;28;20044;-43
2021/11/30 11:21:36;;;;;;;1.55;0.50;;;9.40;99.90;;;;;;5066660;28;20028;-43
2021/11/30 11:24:08;;;;;;;1.90;0.70;;;9.40;99.90;;;;;;5050835;28;20017;-43
2021/11/30 11:26:55;;;;;;;3.13;0.80;;;9.50;99.90;;;;;;5067474;28;20068;-43
2021/11/30 11:29:24;;;;;;;3.13;0.95;;;9.50;99.90;;;;;;5066185;28;20055;-42
2021/11/30 11:31:53;;;;;;;2.72;0.73;;;9.50;99.90;;;;;;5066834;28;20029;-44
2021/11/30 11:34:20;;;;;;;1.58;0.65;;;9.50;99.90;;;;;;5052105;28;20105;-43
2021/11/30 11:36:48;;;;;;;2.28;0.80;;;9.50;99.90;;;;;;5066382;28;20032;-44
2021/11/30 11:39:17;;;;;;;3.45;0.90;;;9.50;99.90;;;;;;5066452;28;20052;-43
2021/11/30 11:41:46;;;;;;;3.25;0.70;;;9.50;99.90;;;;;;5066589;28;20472;-43
2021/11/30 11:44:12;;;;;;;4.30;0.82;;;9.50;99.90;;;;;;5050978;28;20026;-45
2021/11/30 11:46:38;;;;;;;2.90;1.00;;;9.50;99.90;;;;;;5066769;28;20334;-43
2021/11/30 11:49:07;;;;;;;3.40;0.85;;;9.50;99.90;;;;;;5066406;28;20020;-42
2021/11/30 11:51:43;;;;;;;4.35;0.80;;;9.50;99.90;;;;;;5054616;28;20464;-44
2021/11/30 11:54:31;;;;;;;1.48;0.63;;;9.40;99.90;;;;;;5048748;28;20060;-44
2021/11/30 11:57:10;;;;;;;1.83;0.65;;;9.40;99.90;;;;;;5066132;28;20043;-43
2021/11/30 11:59:44;;;;;;;4.30;0.70;;;9.40;99.90;;;;;;5065670;28;20029;-43
2021/11/30 12:02:25;;;;;;;2.63;0.98;;;9.40;99.90;;;;;;5059868;28;20587;-43
2021/11/30 12:04:55;;;;;;;2.38;0.90;;;9.40;99.90;;;;;;5056384;28;20047;-42
2021/11/30 12:07:24;;;;;;;2.83;0.82;;;9.40;99.90;;;;;;5066822;28;20108;-43
2021/11/30 12:10:17;;;;;;;1.98;0.90;;;9.40;99.90;;;;;;5065943;28;20029;-44
2021/11/30 12:12:55;;;;;;;;;;;9.40;99.90;;;;;;5055241;28;20779;-43
2021/11/30 12:15:20;;;;;;;2.92;0.90;;;9.40;99.90;;;;;;5061978;28;19931;-43
2021/11/30 12:17:46;;;;;;;3.00;0.73;;;9.50;99.90;;;;;;5065718;28;20415;-44
2021/11/30 12:20:13;;;;;;;1.42;0.70;;;9.40;99.90;;;;;;5066325;28;20587;-43
2021/11/30 12:22:53;;;;;;;2.72;0.75;;;9.40;99.90;;;;;;5066728;28;20029;-42
2021/11/30 12:25:44;;;;;;;2.70;0.70;;;9.50;99.90;;;;;;5066515;28;20086;-42
2021/11/30 12:28:11;;;;;;;1.20;0.75;;;9.40;99.90;;;;;;5067215;28;20020;-44
2021/11/30 12:30:47;;;;;;;2.25;1.00;;;9.40;99.90;;;;;;5066402;28;20031;-43
2021/11/30 12:33:21;;;;;;;2.78;0.73;;;9.40;99.90;;;;;;5066692;28;20012;-43
2021/11/30 12:35:54;;;;;;;4.80;0.90;;;9.40;99.90;;;;;;5066342;28;20040;-43
2021/11/30 12:38:56;;;;;;;1.75;0.90;;;9.40;99.90;;;;;;5067559;28;20511;-43
2021/11/30 12:41:31;;;;;;;2.78;0.70;;;9.40;99.90;;;;;;5064919;28;20115;-43
2021/11/30 12:44:06;;;;;;;2.05;0.75;;;9.40;99.90;;;;;;5066233;28;20051;-43
2021/11/30 12:46:36;;;;;;;2.03;1.05;;;9.40;99.90;;;;;;5066574;28;20115;-43
2021/11/30 12:49:23;;;;;;;1.17;0.70;;;9.40;99.90;;;;;;5066876;28;20077;-42
2021/11/30 12:52:06;;;;;;;3.25;0.80;;;9.40;99.90;;;;;;5066161;28;20032;-43
2021/11/30 12:54:35;;;;;;;2.22;1.00;;;9.40;99.90;;;;;;5066021;28;20068;-43
2021/11/30 12:57:02;;;;;;;1.40;1.00;;;9.40;99.90;;;;;;5066439;28;20104;-43
2021/11/30 12:59:39;;;;;;;2.10;0.85;;;9.40;99.90;;;;;;5067071;28;20043;-42
2021/11/30 13:02:25;;;;;;;1.40;0.73;;;9.40;99.90;;;;;;5066087;28;20083;-44
2021/11/30 13:05:13;;;;;;;2.33;0.90;;;9.40;99.90;;;;;;5065966;28;20033;-42
2021/11/30 13:07:48;;;;;;;1.50;0.80;;;9.40;99.90;;;;;;5065869;28;20038;-42
2021/11/30 13:10:19;;;;;;;2.80;0.80;;;9.40;99.90;;;;;;5066798;28;20392;-42
2021/11/30 13:12:45;;;;;;;2.15;0.70;;;9.50;99.90;;;;;;5065961;28;20032;-43